Cape May, NJ (08204)

7:19 AM EDT on August 27, 2016 (GMT -0400)
COLD SPRING | | Change Station

Elev 23 ft 38.97 °N, 74.92 °W | Updated 5 minutes ago

Clear
Clear
73.2 °F
Feels Like 75 °F
N
0.0
Wind Variable Wind from East

Today
High -- | Low -- °F
--% Chance of Precip.
Yesterday
High -- | Low -- °F
Precip. -- in
Pressure 30.15 in
Visibility 10.0 miles
Clouds Clear
Heat Index 75 °F
Dew Point 64 °F
Humidity 72%
Rainfall 0.00 in
Snow Depth Not available.
6:24 AM 7:36 PM
Waning Crescent, 25% visible
METAR KMIV 271054Z AUTO 34004KT 10SM CLR 21/19 A3015 RMK AO2 SLP208 T02060189
Pressure 30.15 in
Visibility 10.0 miles
Clouds Clear
Heat Index 75 °F
Dew Point 64 °F
Humidity 72%
Rainfall 0.00 in
Snow Depth Not available.
6:24 AM 7:36 PM
Waning Crescent, 25% visible
METAR KMIV 271054Z AUTO 34004KT 10SM CLR 21/19 A3015 RMK AO2 SLP208 T02060189

10-Day Weather Forecast

Almanac

Astronomy

Aug. 27, 2016 Rise Set
Actual Time
Civil Twilight
Nautical Twilight
Astronomical Twilight
Moon
Length of Visible Light
Length of Day
Tomorrow will be .
, % of the Moon is Illuminated

Today's Extremes

State Highs State Lows

Community

WunderPhotos

Upload Photos

1,935,322 photos uploaded!

WunderBlog® & News

Nearby

Air Quality

  Air Quality AQ Index Pollutant
Not available.

Snow Depth

Station Depth Elevation

Earthquake Activity

City Distance Mag. Time & Date
Minimum magnitude displayed is 2.5.

Coastal Water Temperatures

Place Temperature

Stations

Nearby Weather Stations

Station Location Temp. Windchill Dew Point Humidity Wind Precip. Elev Updated Type
                   

Watches & Warnings

There are currently no watches in effect.